Time;durP1;ratioP1;P1;durP2;ratioP2;P2;SDS_P1;SDS_P2;PMS_P1;PMS_P2;Temp;Humidity;BMP_temperature;BMP_pressure;BME280_temperature;BME280_humidity;BME280_pressure;Samples;Min_cycle;Max_cycle;Signal;HPM_P1;HPM_P2
2021/08/03 00:01:15;;;;;;;4.65;2.80;;;12.50;99.90;;;;;;6194850;22;20023;-86
2021/08/03 00:03:51;;;;;;;6.38;2.63;;;12.50;99.90;;;;;;6219862;22;20336;-86
2021/08/03 00:06:17;;;;;;;7.60;3.00;;;12.50;99.90;;;;;;6254839;22;20018;-86
2021/08/03 00:08:47;;;;;;;8.15;2.38;;;12.50;99.90;;;;;;6194336;22;20022;-87
2021/08/03 00:11:13;;;;;;;5.03;2.75;;;12.50;99.90;;;;;;6254820;22;20524;-86
2021/08/03 00:13:39;;;;;;;5.53;2.90;;;12.40;99.90;;;;;;6219310;22;20012;-85
2021/08/03 00:16:08;;;;;;;6.80;2.42;;;12.40;99.90;;;;;;6194009;22;20012;-86
2021/08/03 00:18:39;;;;;;;13.45;2.80;;;12.40;99.90;;;;;;6244448;22;20053;-86
2021/08/03 00:21:07;;;;;;;5.47;2.25;;;12.30;99.90;;;;;;6254543;22;20445;-86
2021/08/03 00:23:35;;;;;;;7.75;2.50;;;12.40;99.90;;;;;;6193893;22;20095;-86
2021/08/03 00:26:00;;;;;;;5.30;2.72;;;12.40;99.90;;;;;;6244905;22;20031;-86
2021/08/03 00:28:26;;;;;;;6.53;2.47;;;12.40;99.90;;;;;;6218922;22;20011;-86
2021/08/03 00:30:52;;;;;;;7.10;2.80;;;12.40;99.90;;;;;;6219319;22;20083;-85
2021/08/03 00:33:19;;;;;;;12.43;3.13;;;12.30;99.90;;;;;;6244819;22;20628;-86
2021/08/03 00:35:51;;;;;;;11.35;3.10;;;12.30;99.90;;;;;;6244634;22;20037;-86
2021/08/03 00:38:18;;;;;;;7.57;2.10;;;12.20;99.90;;;;;;6244676;22;20141;-86
2021/08/03 00:40:52;;;;;;;5.20;2.20;;;12.20;99.90;;;;;;6219439;22;20448;-86
2021/08/03 00:43:18;;;;;;;3.97;2.30;;;12.20;99.90;;;;;;6219217;22;20014;-86
2021/08/03 00:45:44;;;;;;;6.00;2.08;;;12.10;99.90;;;;;;6244440;22;20015;-86
2021/08/03 00:48:10;;;;;;;3.58;2.20;;;12.10;99.90;;;;;;6219111;22;20068;-85
2021/08/03 00:50:37;;;;;;;7.70;2.00;;;12.10;99.90;;;;;;6219121;22;20042;-86
2021/08/03 00:53:03;;;;;;;2.83;1.95;;;12.10;99.90;;;;;;6219101;22;20038;-86
2021/08/03 00:55:29;;;;;;;9.70;2.28;;;12.00;99.90;;;;;;6219168;22;20013;-87
2021/08/03 00:57:56;;;;;;;3.90;1.70;;;11.90;99.90;;;;;;6218944;22;20043;-86
2021/08/03 01:00:23;;;;;;;4.05;1.50;;;11.90;99.90;;;;;;6219721;22;20467;-85
2021/08/03 01:02:49;;;;;;;9.73;2.03;;;11.90;99.90;;;;;;6218915;22;20008;-85
2021/08/03 01:05:15;;;;;;;9.88;2.17;;;11.80;99.90;;;;;;6218619;22;20012;-85
2021/08/03 01:07:57;;;;;;;4.85;1.63;;;11.80;99.90;;;;;;6219010;22;20482;-86
2021/08/03 01:10:30;;;;;;;8.50;2.22;;;11.80;99.90;;;;;;6218456;22;20026;-86
2021/08/03 01:13:29;;;;;;;8.27;2.70;;;11.80;99.90;;;;;;6218674;22;20011;-86
2021/08/03 01:16:24;;;;;;;9.25;2.53;;;11.80;99.90;;;;;;6254141;22;20387;-85
2021/08/03 01:19:13;;;;;;;5.85;2.40;;;11.80;99.90;;;;;;6208412;22;20012;-86
2021/08/03 01:21:51;;;;;;;6.07;1.98;;;11.80;99.90;;;;;;6244077;22;20015;-87
2021/08/03 01:24:35;;;;;;;2.75;1.70;;;11.80;99.90;;;;;;6244359;22;20345;-85
2021/08/03 01:27:19;;;;;;;7.30;1.92;;;11.80;99.90;;;;;;6218578;22;20035;-85
2021/08/03 01:29:48;;;;;;;1.63;1.52;;;11.70;99.90;;;;;;6244590;22;20404;-86
2021/08/03 01:32:19;;;;;;;3.80;1.90;;;11.70;99.90;;;;;;6243851;22;20012;-86
2021/08/03 01:34:47;;;;;;;2.08;1.40;;;11.60;99.90;;;;;;6245623;22;20012;-86
2021/08/03 01:37:19;;;;;;;4.85;1.50;;;11.60;99.90;;;;;;6220358;22;20034;-87
2021/08/03 01:39:50;;;;;;;8.82;1.75;;;11.60;99.90;;;;;;6221022;22;20015;-86
2021/08/03 01:42:18;;;;;;;3.15;1.98;;;11.50;99.90;;;;;;6255799;22;20395;-88
2021/08/03 01:44:46;;;;;;;9.55;2.42;;;11.50;99.90;;;;;;6246171;22;20393;-87
2021/08/03 01:47:13;;;;;;;5.95;2.03;;;11.50;99.90;;;;;;6245725;22;20492;-86
2021/08/03 01:49:41;;;;;;;13.25;2.05;;;11.50;99.90;;;;;;6196029;22;20090;-86
2021/08/03 01:52:08;;;;;;;3.35;1.80;;;11.50;99.90;;;;;;6246096;22;20019;-87
2021/08/03 01:54:34;;;;;;;8.25;2.33;;;11.50;99.90;;;;;;6220815;22;20012;-86
2021/08/03 01:57:02;;;;;;;9.85;2.30;;;11.50;99.90;;;;;;6220673;22;20012;-87
2021/08/03 01:59:29;;;;;;;4.35;1.48;;;11.50;99.90;;;;;;6245493;22;20329;-86
2021/08/03 02:01:56;;;;;;;10.98;1.90;;;11.50;99.90;;;;;;6220164;22;20332;-87
2021/08/03 02:04:24;;;;;;;7.22;2.17;;;11.40;99.90;;;;;;6245760;22;20039;-87
2021/08/03 02:06:51;;;;;;;1.67;1.55;;;11.40;99.90;;;;;;6245769;22;20039;-87
2021/08/03 02:09:20;;;;;;;2.17;1.50;;;11.40;99.90;;;;;;6220426;22;20012;-87
2021/08/03 02:11:47;;;;;;;5.30;1.70;;;11.40;99.90;;;;;;6221243;22;20488;-87
2021/08/03 02:14:13;;;;;;;2.92;1.48;;;11.40;99.90;;;;;;6220266;22;20460;-87
2021/08/03 02:16:40;;;;;;;2.42;1.30;;;11.20;99.90;;;;;;6193762;22;20453;-87
2021/08/03 02:19:07;;;;;;;1.55;1.45;;;11.20;99.90;;;;;;6229152;22;19999;-88
2021/08/03 02:21:34;;;;;;;3.03;1.52;;;11.10;99.90;;;;;;6275968;22;20051;-88
2021/08/03 02:24:00;;;;;;;1.90;1.20;;;11.00;99.90;;;;;;6249502;22;20035;-87
2021/08/03 02:26:26;;;;;;;2.65;1.27;;;11.00;99.90;;;;;;6220587;22;20008;-87
2021/08/03 02:28:51;;;;;;;2.88;1.30;;;11.00;99.90;;;;;;6220133;22;20083;-88
2021/08/03 02:31:55;;;;;;;2.38;1.50;;;10.90;99.90;;;;;;6221082;22;20030;-85
2021/08/03 02:34:51;;;;;;;2.67;1.42;;;10.90;99.90;;;;;;6219919;22;20036;-87
2021/08/03 02:37:22;;;;;;;3.88;1.25;;;10.90;99.90;;;;;;6219855;22;20008;-87
2021/08/03 02:39:50;;;;;;;3.70;1.38;;;10.80;99.90;;;;;;6255480;22;20180;-86
2021/08/03 02:42:17;;;;;;;2.25;1.50;;;10.80;99.90;;;;;;6245035;22;20014;-87
2021/08/03 02:44:49;;;;;;;5.43;1.73;;;10.80;99.90;;;;;;6220151;22;20232;-87
2021/08/03 02:47:25;;;;;;;7.90;1.67;;;10.80;99.90;;;;;;6220078;22;20018;-87
2021/08/03 02:49:52;;;;;;;2.25;1.50;;;10.80;99.90;;;;;;6196624;22;20012;-87
2021/08/03 02:52:20;;;;;;;4.25;1.70;;;10.80;99.90;;;;;;6220268;22;20030;-87
2021/08/03 02:54:52;;;;;;;4.55;1.42;;;10.80;99.90;;;;;;6220130;22;20141;-87
2021/08/03 02:57:18;;;;;;;1.55;1.30;;;10.80;99.90;;;;;;6244828;22;20345;-87
2021/08/03 02:59:49;;;;;;;2.25;1.50;;;10.70;99.90;;;;;;6220186;22;20504;-87
2021/08/03 03:02:16;;;;;;;2.78;1.23;;;10.70;99.90;;;;;;6271991;22;20018;-87
2021/08/03 03:05:15;;;;;;;2.85;1.35;;;10.60;99.90;;;;;;6245286;22;20015;-87
2021/08/03 03:07:47;;;;;;;3.72;1.50;;;10.60;99.90;;;;;;6244652;22;20474;-87
2021/08/03 03:10:18;;;;;;;2.40;1.50;;;10.60;99.90;;;;;;6255181;22;20016;-87
2021/08/03 03:12:52;;;;;;;3.92;1.70;;;10.60;99.90;;;;;;6244853;22;20238;-87
2021/08/03 03:15:19;;;;;;;5.90;2.00;;;10.60;99.90;;;;;;6255127;22;20008;-87
2021/08/03 03:17:46;;;;;;;3.47;1.55;;;10.60;99.90;;;;;;6194332;22;20023;-87
2021/08/03 03:20:13;;;;;;;6.38;1.80;;;10.60;99.90;;;;;;6194687;22;20026;-86
2021/08/03 03:22:43;;;;;;;4.50;1.30;;;10.60;99.90;;;;;;6219885;22;20019;-86
2021/08/03 03:25:12;;;;;;;4.55;1.40;;;10.60;99.90;;;;;;6244699;22;20082;-87
2021/08/03 03:27:38;;;;;;;3.35;1.30;;;10.60;99.90;;;;;;6219564;22;20012;-86
2021/08/03 03:30:05;;;;;;;3.90;1.40;;;10.60;99.90;;;;;;6219067;22;20447;-86
2021/08/03 03:32:32;;;;;;;4.45;1.50;;;10.60;99.90;;;;;;6219241;22;20016;-86
2021/08/03 03:35:00;;;;;;;2.20;1.30;;;10.60;99.90;;;;;;6244704;22;20353;-86
2021/08/03 03:37:31;;;;;;;5.72;1.85;;;10.60;99.90;;;;;;6219363;22;20008;-87
2021/08/03 03:39:57;;;;;;;2.30;2.00;;;10.70;99.90;;;;;;6218734;22;20054;-87
2021/08/03 03:42:34;;;;;;;6.18;2.03;;;10.70;99.90;;;;;;6245030;22;20019;-86
2021/08/03 03:45:00;;;;;;;4.40;2.08;;;10.70;99.90;;;;;;6254837;22;20139;-86
2021/08/03 03:47:30;;;;;;;7.13;2.17;;;10.70;99.90;;;;;;6244515;22;20019;-86
2021/08/03 03:50:08;;;;;;;6.40;2.50;;;10.80;99.90;;;;;;6218849;22;20062;-86
2021/08/03 03:52:43;;;;;;;4.55;2.47;;;10.80;99.90;;;;;;6253608;22;21478;-87
2021/08/03 03:55:10;;;;;;;6.63;2.78;;;10.80;99.90;;;;;;6254544;22;20011;-87
2021/08/03 03:57:38;;;;;;;5.63;2.20;;;10.80;99.90;;;;;;6244455;22;20014;-87
2021/08/03 04:00:04;;;;;;;4.72;2.80;;;10.90;99.90;;;;;;6219051;22;20011;-87
2021/08/03 04:02:30;;;;;;;6.18;3.10;;;10.90;99.90;;;;;;6194246;22;20007;-86
2021/08/03 04:04:59;;;;;;;6.35;3.45;;;10.90;99.90;;;;;;6243863;22;20014;-87
2021/08/03 04:07:26;;;;;;;8.25;3.35;;;10.90;99.90;;;;;;6219227;22;20011;-86
2021/08/03 04:10:03;;;;;;;7.10;3.10;;;11.00;99.90;;;;;;6243689;22;20019;-85
2021/08/03 04:12:30;;;;;;;5.00;3.28;;;11.00;99.90;;;;;;6244453;22;20356;-86
2021/08/03 04:14:56;;;;;;;8.25;3.13;;;11.00;99.90;;;;;;6222777;22;20043;-86
2021/08/03 04:17:22;;;;;;;4.80;3.58;;;11.10;99.90;;;;;;6249621;22;20003;-86
2021/08/03 04:19:48;;;;;;;8.65;3.80;;;11.10;99.90;;;;;;6265393;22;20065;-86
2021/08/03 04:22:14;;;;;;;7.25;3.95;;;11.10;99.90;;;;;;6244186;22;20517;-86
2021/08/03 04:24:40;;;;;;;6.25;2.90;;;11.20;99.90;;;;;;6194679;22;20057;-87
2021/08/03 04:27:06;;;;;;;12.23;4.45;;;11.20;99.90;;;;;;6193752;22;20345;-87
2021/08/03 04:29:32;;;;;;;9.63;4.22;;;11.30;99.90;;;;;;6218701;22;20027;-87
2021/08/03 04:31:58;;;;;;;12.70;3.40;;;11.30;99.90;;;;;;6228314;22;20026;-87
2021/08/03 04:34:24;;;;;;;9.50;3.08;;;11.40;99.90;;;;;;6248849;22;20028;-87
2021/08/03 04:36:50;;;;;;;9.13;3.78;;;11.40;99.90;;;;;;6235132;22;20083;-87
2021/08/03 04:39:16;;;;;;;6.43;2.92;;;11.50;99.90;;;;;;6243592;22;20012;-87
2021/08/03 04:41:42;;;;;;;7.10;3.33;;;11.50;99.90;;;;;;6194250;22;20518;-87
2021/08/03 04:44:08;;;;;;;5.72;3.40;;;11.60;99.90;;;;;;6244672;22;20340;-87
2021/08/03 04:46:35;;;;;;;6.63;3.65;;;11.60;99.90;;;;;;6244690;22;20015;-87
2021/08/03 04:49:01;;;;;;;8.00;3.53;;;11.70;99.90;;;;;;6219146;22;20047;-86
2021/08/03 04:51:27;;;;;;;7.82;3.17;;;11.70;99.90;;;;;;6244369;22;20022;-87
2021/08/03 04:53:52;;;;;;;17.48;3.90;;;11.70;99.90;;;;;;6218846;22;20034;-89
2021/08/03 04:56:18;;;;;;;7.93;3.58;;;11.80;99.90;;;;;;6244317;22;20441;-86
2021/08/03 04:58:44;;;;;;;6.63;3.03;;;11.80;99.90;;;;;;6218720;22;20016;-87
2021/08/03 05:01:10;;;;;;;7.57;3.10;;;11.90;99.90;;;;;;6219056;22;20014;-87
2021/08/03 05:03:36;;;;;;;6.30;3.05;;;11.90;99.90;;;;;;6218707;22;20007;-87
2021/08/03 05:06:01;;;;;;;4.22;2.90;;;11.90;99.90;;;;;;6244427;22;20062;-88
2021/08/03 05:08:27;;;;;;;6.70;3.63;;;11.90;99.90;;;;;;6194679;22;20065;-87
2021/08/03 05:10:53;;;;;;;6.20;2.60;;;12.00;99.90;;;;;;6221380;22;20357;-87
2021/08/03 05:13:19;;;;;;;4.60;3.05;;;11.90;99.90;;;;;;6195922;22;20019;-87
2021/08/03 05:15:45;;;;;;;6.13;3.10;;;11.90;99.90;;;;;;6221127;22;20012;-86
2021/08/03 05:18:10;;;;;;;4.05;3.20;;;11.90;99.90;;;;;;6196285;22;20015;-86
2021/08/03 05:20:36;;;;;;;6.57;3.20;;;11.90;99.90;;;;;;6220568;22;20054;-87
2021/08/03 05:23:02;;;;;;;6.40;3.30;;;11.90;99.90;;;;;;6220718;22;20095;-87
2021/08/03 05:25:28;;;;;;;9.05;3.50;;;11.90;99.90;;;;;;6220599;22;20076;-87
2021/08/03 05:27:54;;;;;;;6.53;2.92;;;11.90;99.90;;;;;;6220765;22;20057;-87
2021/08/03 05:30:20;;;;;;;5.97;3.40;;;12.00;99.90;;;;;;6220199;22;20012;-87
2021/08/03 05:32:46;;;;;;;8.57;3.95;;;12.00;99.90;;;;;;6220554;22;20090;-87
2021/08/03 05:35:12;;;;;;;11.00;3.35;;;12.00;99.90;;;;;;6195542;22;20377;-87
2021/08/03 05:37:38;;;;;;;5.15;3.58;;;12.00;99.90;;;;;;6246155;22;20018;-87
2021/08/03 05:40:08;;;;;;;5.32;3.13;;;12.10;99.90;;;;;;6245390;22;20340;-87
2021/08/03 05:42:36;;;;;;;4.53;3.57;;;12.10;99.90;;;;;;6221657;22;20011;-87
2021/08/03 05:45:03;;;;;;;4.55;3.38;;;12.10;99.90;;;;;;6220467;22;20091;-86
2021/08/03 05:47:30;;;;;;;6.38;3.80;;;12.20;99.90;;;;;;6220990;22;20012;-87
2021/08/03 05:49:55;;;;;;;7.35;3.63;;;12.20;99.90;;;;;;6220364;22;20016;-86
2021/08/03 05:52:22;;;;;;;7.82;3.78;;;12.30;99.90;;;;;;6220841;22;20012;-87
2021/08/03 05:54:47;;;;;;;9.93;3.53;;;12.40;99.90;;;;;;6246063;22;20008;-87
2021/08/03 05:57:14;;;;;;;4.78;3.67;;;12.40;99.90;;;;;;6219945;22;20015;-87
2021/08/03 05:59:40;;;;;;;8.65;3.90;;;12.40;99.90;;;;;;6220314;22;20069;-88
2021/08/03 06:02:05;;;;;;;12.27;3.58;;;12.50;99.90;;;;;;6219955;22;20090;-86
2021/08/03 06:04:32;;;;;;;5.18;2.95;;;12.50;99.90;;;;;;6194494;22;20018;-86
2021/08/03 06:07:02;;;;;;;7.05;3.33;;;12.60;99.90;;;;;;6220642;22;20016;-87
2021/08/03 06:09:31;;;;;;;8.65;3.25;;;12.60;99.90;;;;;;6222606;22;20061;-87
2021/08/03 06:12:01;;;;;;;7.28;3.63;;;12.70;99.90;;;;;;6195231;22;20071;-88
2021/08/03 06:14:44;;;;;;;7.50;3.40;;;12.70;99.90;;;;;;6220369;22;20331;-87
2021/08/03 06:17:14;;;;;;;6.57;3.85;;;12.80;99.90;;;;;;6220627;22;20086;-88
2021/08/03 06:19:42;;;;;;;6.57;3.70;;;12.90;99.90;;;;;;6245848;22;20011;-88
2021/08/03 06:22:10;;;;;;;6.82;3.13;;;13.00;99.90;;;;;;6245767;22;20041;-87
2021/08/03 06:24:37;;;;;;;4.97;2.83;;;13.00;99.90;;;;;;6245954;22;20014;-87
2021/08/03 06:27:10;;;;;;;5.18;3.13;;;13.20;99.90;;;;;;6220454;22;20011;-87
2021/08/03 06:29:38;;;;;;;6.43;2.97;;;13.20;99.90;;;;;;6255638;22;20012;-87
2021/08/03 06:32:07;;;;;;;4.60;2.40;;;13.30;99.90;;;;;;6220913;22;20007;-87
2021/08/03 06:34:43;;;;;;;4.40;2.08;;;13.40;99.90;;;;;;6220074;22;20012;-87
2021/08/03 06:37:09;;;;;;;3.92;2.38;;;13.50;99.90;;;;;;6245728;22;20018;-87
2021/08/03 06:39:36;;;;;;;4.82;2.67;;;13.60;99.90;;;;;;6245410;22;20015;-87
2021/08/03 06:42:05;;;;;;;4.82;2.20;;;13.70;99.90;;;;;;6195282;22;20352;-87
2021/08/03 06:44:50;;;;;;;3.65;1.50;;;13.80;99.90;;;;;;6245662;22;20015;-87
2021/08/03 06:47:33;;;;;;;4.85;2.00;;;13.90;99.90;;;;;;6220362;22;20348;-87
2021/08/03 06:50:02;;;;;;;4.72;1.55;;;14.10;99.90;;;;;;6245371;22;20019;-87
2021/08/03 06:52:28;;;;;;;6.95;1.80;;;14.20;99.90;;;;;;6219879;22;20011;-86
2021/08/03 06:55:03;;;;;;;5.75;1.50;;;14.30;99.90;;;;;;6245339;22;20062;-87
2021/08/03 06:57:33;;;;;;;2.97;1.35;;;14.50;99.90;;;;;;6219830;22;20043;-87
2021/08/03 07:00:04;;;;;;;3.42;1.20;;;14.60;99.90;;;;;;6219391;22;20007;-86
2021/08/03 07:02:33;;;;;;;2.92;1.38;;;14.70;99.90;;;;;;6245159;22;20012;-88
2021/08/03 07:05:06;;;;;;;2.08;1.00;;;14.80;99.90;;;;;;6219615;22;20251;-88
2021/08/03 07:07:34;;;;;;;14.07;1.30;;;14.90;99.90;;;;;;6221625;22;20275;-88
2021/08/03 07:10:03;;;;;;;1.60;0.98;;;15.00;99.90;;;;;;6245188;22;20022;-85
2021/08/03 07:12:30;;;;;;;4.82;1.17;;;15.00;99.90;;;;;;6246327;22;20449;-85
2021/08/03 07:14:57;;;;;;;7.43;1.65;;;15.20;99.90;;;;;;6211770;22;20016;-87
2021/08/03 07:17:25;;;;;;;4.57;1.35;;;15.20;99.90;;;;;;6248241;22;20042;-88
2021/08/03 07:19:52;;;;;;;4.97;1.00;;;15.30;99.90;;;;;;6225342;22;20004;-86
2021/08/03 07:22:18;;;;;;;4.00;1.25;;;15.40;99.90;;;;;;6219473;22;20065;-86
2021/08/03 07:24:46;;;;;;;2.75;0.80;;;15.50;99.90;;;;;;6219695;22;20008;-86
2021/08/03 07:27:13;;;;;;;4.25;1.10;;;15.60;99.90;;;;;;6219687;22;20030;-86
2021/08/03 07:29:39;;;;;;;1.92;1.00;;;15.60;99.90;;;;;;6193940;22;20407;-86
2021/08/03 07:32:08;;;;;;;3.28;1.05;;;15.70;99.90;;;;;;6244444;22;20024;-85
2021/08/03 07:34:37;;;;;;;2.78;1.20;;;15.80;99.90;;;;;;6244382;22;20007;-86
2021/08/03 07:37:04;;;;;;;2.17;0.98;;;15.80;99.90;;;;;;6219665;22;20035;-86
2021/08/03 07:39:30;;;;;;;1.85;1.00;;;15.90;99.90;;;;;;6219414;22;20035;-87
2021/08/03 07:41:58;;;;;;;2.33;1.05;;;16.00;99.90;;;;;;6219402;22;20444;-86
2021/08/03 07:44:24;;;;;;;6.30;1.00;;;16.00;99.90;;;;;;6219560;22;20020;-86
2021/08/03 07:46:50;;;;;;;4.28;1.23;;;16.10;99.90;;;;;;6219705;22;20042;-87
2021/08/03 07:49:18;;;;;;;3.20;1.25;;;16.20;99.90;;;;;;6219243;22;20092;-86
2021/08/03 07:51:45;;;;;;;4.18;1.15;;;16.20;99.90;;;;;;6194446;22;20355;-86
2021/08/03 07:54:11;;;;;;;2.83;1.05;;;16.30;99.90;;;;;;6194220;22;20012;-86
2021/08/03 07:56:37;;;;;;;3.88;1.10;;;16.40;99.90;;;;;;6194368;22;20019;-85
2021/08/03 07:59:02;;;;;;;4.72;1.08;;;16.40;99.80;;;;;;6194281;22;20363;-86
2021/08/03 08:01:28;;;;;;;5.47;0.98;;;16.50;99.70;;;;;;6194790;22;20448;-86
2021/08/03 08:03:54;;;;;;;7.88;1.08;;;16.50;99.40;;;;;;6242164;22;20003;-87
2021/08/03 08:06:21;;;;;;;5.35;0.88;;;16.60;98.80;;;;;;6249926;22;20012;-88
2021/08/03 08:08:47;;;;;;;3.17;1.02;;;16.60;98.00;;;;;;6220891;22;20087;-85
2021/08/03 08:11:12;;;;;;;3.22;0.90;;;16.60;97.80;;;;;;6219593;22;20028;-86
2021/08/03 08:13:39;;;;;;;3.15;1.05;;;16.70;98.10;;;;;;6218716;22;20474;-86
2021/08/03 08:16:05;;;;;;;2.13;1.00;;;16.70;98.20;;;;;;6271500;22;20015;-86
2021/08/03 08:18:31;;;;;;;2.05;0.90;;;16.80;98.10;;;;;;6192086;22;20414;-85
2021/08/03 08:20:57;;;;;;;3.42;1.17;;;16.80;98.20;;;;;;6194038;22;20054;-86
2021/08/03 08:23:23;;;;;;;2.85;0.90;;;16.90;97.90;;;;;;6219131;22;20016;-86
2021/08/03 08:25:49;;;;;;;2.50;1.15;;;16.90;97.80;;;;;;6219435;22;20042;-86
2021/08/03 08:28:15;;;;;;;2.58;0.95;;;16.90;97.80;;;;;;6244737;22;20023;-87
2021/08/03 08:30:41;;;;;;;2.25;1.15;;;16.80;97.80;;;;;;6218720;22;20463;-86
2021/08/03 08:33:09;;;;;;;2.47;0.98;;;16.80;98.10;;;;;;6218835;22;20019;-87
2021/08/03 08:35:36;;;;;;;1.75;1.10;;;17.00;97.90;;;;;;6193503;22;20042;-87
2021/08/03 08:38:02;;;;;;;2.60;0.95;;;17.10;97.30;;;;;;6219264;22;20016;-86
2021/08/03 08:40:28;;;;;;;1.58;0.90;;;17.20;97.20;;;;;;6244592;22;20007;-86
2021/08/03 08:42:54;;;;;;;3.88;1.08;;;17.20;96.50;;;;;;6219858;22;20156;-85
2021/08/03 08:45:20;;;;;;;2.13;0.80;;;17.30;95.50;;;;;;6220465;22;20011;-85
2021/08/03 08:47:48;;;;;;;1.60;0.90;;;17.40;95.30;;;;;;6221761;22;20541;-85
2021/08/03 08:50:20;;;;;;;3.22;0.90;;;17.50;94.30;;;;;;6220516;22;20015;-85
2021/08/03 08:52:53;;;;;;;5.07;0.60;;;17.50;95.00;;;;;;6247976;22;20487;-84
2021/08/03 08:55:20;;;;;;;1.08;0.70;;;17.50;94.40;;;;;;6224761;22;20449;-84
2021/08/03 08:57:51;;;;;;;2.50;0.80;;;17.60;93.90;;;;;;6221438;22;20008;-85
2021/08/03 09:00:19;;;;;;;5.43;1.10;;;17.60;93.90;;;;;;6232036;22;20019;-85
2021/08/03 09:02:52;;;;;;;2.17;1.13;;;17.60;94.00;;;;;;6220480;22;20012;-84
2021/08/03 09:05:30;;;;;;;3.85;0.93;;;17.70;94.20;;;;;;6274296;22;20094;-85
2021/08/03 09:07:58;;;;;;;5.38;1.27;;;17.80;94.00;;;;;;6257956;22;20067;-85
2021/08/03 09:10:36;;;;;;;2.97;1.10;;;17.80;94.30;;;;;;6246641;22;20483;-86
2021/08/03 09:13:09;;;;;;;4.20;1.08;;;17.70;94.60;;;;;;6246427;22;20011;-86
2021/08/03 09:15:38;;;;;;;3.38;1.05;;;17.70;94.30;;;;;;6246508;22;20015;-86
2021/08/03 09:18:08;;;;;;;2.58;1.13;;;17.80;94.10;;;;;;6222487;22;20065;-86
2021/08/03 09:20:35;;;;;;;2.38;1.27;;;17.80;93.40;;;;;;6246800;22;20016;-85
2021/08/03 09:23:01;;;;;;;2.28;1.08;;;17.70;93.10;;;;;;6247143;22;20047;-86
2021/08/03 09:25:26;;;;;;;2.65;1.20;;;17.70;93.00;;;;;;6224427;22;20012;-86
2021/08/03 09:27:52;;;;;;;3.58;1.30;;;17.70;92.00;;;;;;6224028;22;20312;-85
2021/08/03 09:30:18;;;;;;;3.42;1.40;;;17.70;91.90;;;;;;6226420;22;20328;-83
2021/08/03 09:32:48;;;;;;;3.50;1.40;;;17.70;91.90;;;;;;6249879;22;20008;-85
2021/08/03 09:35:19;;;;;;;2.58;1.20;;;17.70;91.80;;;;;;6225268;22;20507;-86
2021/08/03 09:37:45;;;;;;;3.92;1.30;;;17.60;90.90;;;;;;6247003;22;20491;-85
2021/08/03 09:40:33;;;;;;;2.05;1.00;;;17.60;91.10;;;;;;6245904;22;20015;-86
2021/08/03 09:43:09;;;;;;;5.50;1.30;;;17.60;90.90;;;;;;6246568;22;20090;-85
2021/08/03 09:45:43;;;;;;;3.92;1.25;;;17.50;90.60;;;;;;6246168;22;20020;-85
2021/08/03 09:48:15;;;;;;;2.88;1.10;;;17.50;90.60;;;;;;6220986;22;20448;-86
2021/08/03 09:50:54;;;;;;;2.28;1.20;;;17.50;91.20;;;;;;6246472;22;20049;-85
2021/08/03 09:53:40;;;;;;;2.30;0.98;;;17.50;91.90;;;;;;6247430;22;20321;-85
2021/08/03 09:56:29;;;;;;;2.50;0.90;;;17.40;92.80;;;;;;6256350;22;20039;-85
2021/08/03 09:59:04;;;;;;;2.53;0.82;;;17.40;93.30;;;;;;6233972;22;20039;-86
2021/08/03 10:01:34;;;;;;;1.98;1.08;;;17.40;93.50;;;;;;6245827;22;20015;-87
2021/08/03 10:04:05;;;;;;;2.15;1.17;;;17.40;92.80;;;;;;6245489;22;20012;-86
2021/08/03 10:06:33;;;;;;;3.45;1.20;;;17.40;92.30;;;;;;6272396;22;20007;-87
2021/08/03 10:08:59;;;;;;;4.22;1.20;;;17.30;92.40;;;;;;6245434;22;20338;-86
2021/08/03 10:11:26;;;;;;;3.85;1.40;;;17.30;92.40;;;;;;6220214;22;20069;-86
2021/08/03 10:13:53;;;;;;;5.25;0.93;;;17.30;92.60;;;;;;6221120;22;20007;-85
2021/08/03 10:16:21;;;;;;;2.47;0.95;;;17.30;92.30;;;;;;6221387;22;20087;-85
2021/08/03 10:18:49;;;;;;;3.50;1.20;;;17.40;92.30;;;;;;6195486;22;20022;-86
2021/08/03 10:21:38;;;;;;;2.17;1.00;;;17.30;91.90;;;;;;6245023;22;20089;-86
2021/08/03 10:24:21;;;;;;;3.17;0.90;;;17.30;92.20;;;;;;6248505;22;20403;-86
2021/08/03 10:27:09;;;;;;;2.17;1.08;;;17.30;92.70;;;;;;6245824;22;20008;-85
2021/08/03 10:29:51;;;;;;;1.95;1.00;;;17.40;92.90;;;;;;6244932;22;20012;-86
2021/08/03 10:32:40;;;;;;;1.73;1.05;;;17.40;92.30;;;;;;6245448;22;20065;-85
2021/08/03 10:35:13;;;;;;;4.60;1.30;;;17.40;92.10;;;;;;6245447;22;20011;-85
2021/08/03 10:38:13;;;;;;;3.78;1.10;;;17.50;92.50;;;;;;6246461;22;20012;-86
2021/08/03 10:40:45;;;;;;;5.60;1.15;;;17.60;92.00;;;;;;6197501;22;20011;-83
2021/08/03 10:43:25;;;;;;;2.55;1.10;;;17.70;91.00;;;;;;6247988;22;20007;-84
2021/08/03 10:46:06;;;;;;;2.47;1.17;;;17.90;91.20;;;;;;6274245;22;20019;-85
2021/08/03 10:48:42;;;;;;;3.28;1.08;;;17.90;90.70;;;;;;6246116;22;20015;-85
2021/08/03 10:51:14;;;;;;;2.22;1.05;;;18.00;91.10;;;;;;6245738;22;20391;-85
2021/08/03 10:54:01;;;;;;;4.95;1.48;;;18.00;91.10;;;;;;6245554;22;20011;-85
2021/08/03 10:56:47;;;;;;;2.70;1.10;;;18.10;90.40;;;;;;6256832;22;20007;-85
2021/08/03 10:59:34;;;;;;;4.07;1.25;;;18.20;90.30;;;;;;6251056;22;20331;-86
2021/08/03 11:02:02;;;;;;;3.08;1.40;;;18.30;90.70;;;;;;6219583;22;20067;-85
2021/08/03 11:04:47;;;;;;;2.28;1.10;;;18.40;90.30;;;;;;6245063;22;20012;-86
2021/08/03 11:07:30;;;;;;;4.10;1.00;;;18.40;89.90;;;;;;6245326;22;20018;-86
2021/08/03 11:10:25;;;;;;;4.47;1.20;;;18.50;90.10;;;;;;6195380;22;20015;-85
2021/08/03 11:12:52;;;;;;;1.98;1.10;;;18.50;89.00;;;;;;6246123;22;20095;-85
2021/08/03 11:15:25;;;;;;;1.88;1.23;;;18.50;90.00;;;;;;6245829;22;20011;-87
2021/08/03 11:18:02;;;;;;;2.72;1.20;;;18.50;90.00;;;;;;6246538;22;20012;-85
2021/08/03 11:20:48;;;;;;;2.38;1.20;;;18.50;89.90;;;;;;6255512;22;20329;-85
2021/08/03 11:23:17;;;;;;;2.05;1.10;;;18.60;90.90;;;;;;6254200;22;20012;-86
2021/08/03 11:25:47;;;;;;;2.42;1.02;;;18.70;90.60;;;;;;6245087;22;20448;-85
2021/08/03 11:28:20;;;;;;;3.97;1.20;;;18.80;90.00;;;;;;6254811;22;20015;-87
2021/08/03 11:30:49;;;;;;;2.80;1.00;;;18.90;90.00;;;;;;6245274;22;20011;-84
2021/08/03 11:33:17;;;;;;;1.77;1.00;;;19.00;86.90;;;;;;6245779;22;20017;-87
2021/08/03 11:35:43;;;;;;;3.17;1.02;;;19.00;85.60;;;;;;6221337;22;20008;-85
2021/08/03 11:38:12;;;;;;;1.95;1.30;;;19.00;86.50;;;;;;6221294;22;20086;-86
2021/08/03 11:40:38;;;;;;;2.60;1.10;;;19.00;87.40;;;;;;6245473;22;20018;-85
2021/08/03 11:43:06;;;;;;;4.00;1.30;;;19.00;87.30;;;;;;6245406;22;20015;-85
2021/08/03 11:45:36;;;;;;;2.85;1.27;;;19.00;87.50;;;;;;6220639;22;20224;-85
2021/08/03 11:48:04;;;;;;;1.73;1.15;;;19.10;85.40;;;;;;6220648;22;20018;-85
2021/08/03 11:50:32;;;;;;;2.88;0.90;;;19.10;85.00;;;;;;6245162;22;20015;-84
2021/08/03 11:53:07;;;;;;;2.47;1.20;;;19.00;86.40;;;;;;6271683;22;20352;-86
2021/08/03 11:55:34;;;;;;;2.55;1.17;;;19.00;86.70;;;;;;6244676;22;20462;-84
2021/08/03 11:58:01;;;;;;;2.70;1.02;;;19.00;87.00;;;;;;6219305;22;20069;-85
2021/08/03 12:00:27;;;;;;;2.25;1.15;;;18.90;87.10;;;;;;6244742;22;20008;-84
2021/08/03 12:02:55;;;;;;;1.85;1.30;;;18.90;84.30;;;;;;6244457;22;20506;-85
2021/08/03 12:05:30;;;;;;;2.05;1.08;;;19.00;81.10;;;;;;6244256;22;20467;-84
2021/08/03 12:08:11;;;;;;;1.50;1.00;;;19.10;81.80;;;;;;6220581;22;20008;-86
2021/08/03 12:10:38;;;;;;;1.65;1.23;;;19.10;83.50;;;;;;6244597;22;20015;-85
2021/08/03 12:13:06;;;;;;;2.45;1.10;;;19.20;86.00;;;;;;6272199;22;20007;-86
2021/08/03 12:15:48;;;;;;;2.08;1.17;;;19.20;85.50;;;;;;6219046;22;20018;-85
2021/08/03 12:18:14;;;;;;;2.27;1.10;;;19.20;85.40;;;;;;6271052;22;20081;-86
2021/08/03 12:20:49;;;;;;;2.83;1.20;;;19.10;82.90;;;;;;6220069;22;20027;-84
2021/08/03 12:23:23;;;;;;;1.63;1.08;;;19.00;81.60;;;;;;6245617;22;20360;-84
2021/08/03 12:25:58;;;;;;;3.10;1.27;;;19.00;81.40;;;;;;6244738;22;20353;-85
2021/08/03 12:28:34;;;;;;;2.15;1.20;;;18.90;80.80;;;;;;6218401;22;20038;-84
2021/08/03 12:31:25;;;;;;;2.63;1.10;;;18.90;81.40;;;;;;6244645;22;20445;-85
2021/08/03 12:33:52;;;;;;;2.70;1.40;;;18.80;82.80;;;;;;6247484;22;20011;-84
2021/08/03 12:36:20;;;;;;;2.45;1.00;;;18.80;83.70;;;;;;6219945;22;20040;-85
2021/08/03 12:39:08;;;;;;;1.40;0.98;;;18.90;84.80;;;;;;6244222;22;20011;-84
2021/08/03 12:41:36;;;;;;;3.53;1.30;;;19.00;85.50;;;;;;6245206;22;20456;-84
2021/08/03 12:44:02;;;;;;;2.20;1.30;;;19.10;85.40;;;;;;6243967;22;20023;-86
2021/08/03 12:46:36;;;;;;;1.88;1.10;;;19.20;87.70;;;;;;6244706;22;20008;-86
2021/08/03 12:49:06;;;;;;;2.13;1.30;;;19.40;84.80;;;;;;6218134;22;20106;-84
2021/08/03 12:51:34;;;;;;;2.03;0.95;;;19.40;82.80;;;;;;6219853;22;20016;-85
2021/08/03 12:54:17;;;;;;;3.42;1.40;;;19.50;83.30;;;;;;6245542;22;20018;-84
2021/08/03 12:56:53;;;;;;;2.33;1.20;;;19.60;78.80;;;;;;6256610;22;20433;-82
2021/08/03 12:59:37;;;;;;;2.33;1.20;;;19.60;70.80;;;;;;6221588;22;20471;-83
2021/08/03 13:02:04;;;;;;;2.92;1.10;;;19.70;68.20;;;;;;6246600;22;20091;-83